createdAt,value
2018-04-29T00:00:07.163Z,62.07
2018-04-29T00:01:07.090Z,62.26
2018-04-29T00:02:07.016Z,62.65
2018-04-29T00:03:06.941Z,62.65
2018-04-29T00:04:06.885Z,62.26
2018-04-29T00:05:06.796Z,62.26
2018-04-29T00:06:06.735Z,62.55
2018-04-29T00:07:06.644Z,63.13
2018-04-29T00:08:06.568Z,63.32
2018-04-29T00:09:06.495Z,63.13
2018-04-29T00:10:06.423Z,63.51
2018-04-29T00:11:06.350Z,63.57
2018-04-29T00:12:06.271Z,63.39
2018-04-29T00:13:06.197Z,63.67
2018-04-29T00:14:06.131Z,63.67
2018-04-29T00:15:06.049Z,64.05
2018-04-29T00:16:05.976Z,63.86
2018-04-29T00:17:05.904Z,63.86
2018-04-29T00:18:05.831Z,63.76
2018-04-29T00:19:05.751Z,63.96
2018-04-29T00:20:05.678Z,63.76
2018-04-29T00:21:05.604Z,64.05
2018-04-29T00:22:05.545Z,63.86
2018-04-29T00:23:05.456Z,64.34
2018-04-29T00:24:05.388Z,64.43
2018-04-29T00:25:05.321Z,63.57
2018-04-29T00:26:05.236Z,63.67
2018-04-29T00:27:05.156Z,63.76
2018-04-29T00:28:05.082Z,63.57
2018-04-29T00:29:05.010Z,63.57
2018-04-29T00:30:04.934Z,64.05
2018-04-29T00:31:04.858Z,64.25
2018-04-29T00:32:04.785Z,63.86
2018-04-29T00:33:04.712Z,64.25
2018-04-29T00:34:04.637Z,64.34
2018-04-29T00:35:04.563Z,64.53
2018-04-29T00:36:04.487Z,64.15
2018-04-29T00:37:04.414Z,64.34
2018-04-29T00:38:04.338Z,64.43
2018-04-29T00:39:04.288Z,64.63
2018-04-29T00:40:04.190Z,64.25
2018-04-29T00:41:04.117Z,64.53
2018-04-29T00:42:04.043Z,64.53
2018-04-29T00:43:03.966Z,64.53
2018-04-29T00:44:03.921Z,64.34
2018-04-29T00:45:03.819Z,64.34
2018-04-29T00:46:03.744Z,64.34
2018-04-29T00:47:03.670Z,64.82
2018-04-29T00:48:03.596Z,64.82
2018-04-29T00:49:03.526Z,64.25
2018-04-29T00:50:03.448Z,64.25
2018-04-29T00:51:03.375Z,64.43
2018-04-29T00:52:03.304Z,64.92
2018-04-29T00:53:03.224Z,65.20
2018-04-29T00:54:03.148Z,64.92
2018-04-29T00:55:03.072Z,64.92
2018-04-29T00:56:02.999Z,65.11
2018-04-29T00:57:02.928Z,65.11
2018-04-29T00:58:02.855Z,64.25
2018-04-29T00:59:02.796Z,64.43
2018-04-29T01:00:02.700Z,64.82
2018-04-29T01:01:02.629Z,65.01
2018-04-29T01:02:02.571Z,64.92
2018-04-29T01:03:02.486Z,65.39
2018-04-29T01:04:02.404Z,65.30
2018-04-29T01:05:02.328Z,64.72
2018-04-29T01:06:02.343Z,64.25
2018-04-29T01:07:02.186Z,65.20
2018-04-29T01:08:02.113Z,65.39
2018-04-29T01:09:02.030Z,65.39
2018-04-29T01:10:01.958Z,64.92
2018-04-29T01:11:01.884Z,65.20
2018-04-29T01:12:01.809Z,64.92
2018-04-29T01:13:01.756Z,64.53
2018-04-29T01:14:01.675Z,65.20
2018-04-29T01:15:01.588Z,65.01
2018-04-29T01:16:01.515Z,65.01
2018-04-29T01:17:01.439Z,65.11
2018-04-29T01:18:01.378Z,65.68
2018-04-29T01:19:01.288Z,65.88
2018-04-29T01:20:01.214Z,65.58
2018-04-29T01:21:01.138Z,66.16
2018-04-29T01:22:01.071Z,66.35
2018-04-29T01:23:00.991Z,66.06
2018-04-29T01:24:00.913Z,66.35
2018-04-29T01:25:00.840Z,66.83
2018-04-29T01:26:00.762Z,66.70
2018-04-29T01:27:00.691Z,66.51
2018-04-29T01:28:00.619Z,66.80
2018-04-29T01:29:00.553Z,66.99
2018-04-29T01:30:00.466Z,67.66
2018-04-29T01:31:00.393Z,67.76
2018-04-29T01:32:00.316Z,67.76
2018-04-29T01:33:00.247Z,67.76
2018-04-29T01:34:00.169Z,67.66
2018-04-29T01:35:00.096Z,68.04
2018-04-29T01:36:00.021Z,67.47
2018-04-29T01:36:59.945Z,67.85
2018-04-29T01:37:59.885Z,67.76
2018-04-29T01:38:59.793Z,67.27
2018-04-29T01:39:59.724Z,67.66
2018-04-29T01:40:59.655Z,67.94
2018-04-29T01:41:59.571Z,67.94
2018-04-29T01:42:59.498Z,67.85
2018-04-29T01:43:59.439Z,68.23
2018-04-29T01:44:59.347Z,67.94
2018-04-29T01:45:59.280Z,67.76
2018-04-29T01:46:59.197Z,67.47
2018-04-29T01:47:59.124Z,68.04
2018-04-29T01:48:59.047Z,68.33
2018-04-29T01:49:58.976Z,68.13
2018-04-29T01:50:58.899Z,68.71
2018-04-29T01:51:58.852Z,68.68
2018-04-29T01:52:58.749Z,69.15
2018-04-29T01:53:58.674Z,69.64
2018-04-29T01:54:58.604Z,69.44
2018-04-29T01:55:58.524Z,69.54
2018-04-29T01:56:58.454Z,70.30
2018-04-29T01:57:58.375Z,70.59
2018-04-29T01:58:58.299Z,70.40
2018-04-29T01:59:58.223Z,70.21
2018-04-29T02:00:58.158Z,70.40
2018-04-29T02:01:58.091Z,70.40
2018-04-29T02:02:58.001Z,70.27
2018-04-29T02:03:57.924Z,70.78
2018-04-29T02:04:57.848Z,71.26
2018-04-29T02:05:57.773Z,70.87
2018-04-29T02:06:57.699Z,70.97
2018-04-29T02:07:57.632Z,70.68
2018-04-29T02:08:57.547Z,71.26
2018-04-29T02:09:57.473Z,71.13
2018-04-29T02:10:57.403Z,71.61
2018-04-29T02:11:57.321Z,70.78
2018-04-29T02:12:57.251Z,71.07
2018-04-29T02:13:57.171Z,71.03
2018-04-29T02:14:57.094Z,71.22
2018-04-29T02:15:57.022Z,70.94
2018-04-29T02:16:56.951Z,70.75
2018-04-29T02:17:56.889Z,70.75
2018-04-29T02:18:56.794Z,71.32
2018-04-29T02:19:56.719Z,70.84
2018-04-29T02:20:56.645Z,71.64
2018-04-29T02:21:56.569Z,71.13
2018-04-29T02:22:56.497Z,71.07
2018-04-29T02:23:56.418Z,71.36
2018-04-29T02:24:56.353Z,71.36
2018-04-29T02:25:56.268Z,71.55
2018-04-29T02:26:56.193Z,71.51
2018-04-29T02:27:56.127Z,71.64
2018-04-29T02:28:56.048Z,71.22
2018-04-29T02:29:55.967Z,71.22
2018-04-29T02:30:55.889Z,71.42
2018-04-29T02:31:55.819Z,71.22
2018-04-29T02:32:55.745Z,71.42
2018-04-29T02:33:55.667Z,71.22
2018-04-29T02:34:55.590Z,71.61
2018-04-29T02:35:55.516Z,71.42
2018-04-29T02:36:55.446Z,71.51
2018-04-29T02:37:55.363Z,71.22
2018-04-29T02:38:55.288Z,71.32
2018-04-29T02:39:55.223Z,71.13
2018-04-29T02:40:55.137Z,71.99
2018-04-29T02:41:55.069Z,71.99
2018-04-29T02:42:55.011Z,72.18
2018-04-29T02:43:54.912Z,71.70
2018-04-29T02:44:54.835Z,71.89
2018-04-29T02:45:54.759Z,72.18
2018-04-29T02:46:54.687Z,72.18
2018-04-29T02:47:54.609Z,72.28
2018-04-29T02:48:54.537Z,72.56
2018-04-29T02:49:54.466Z,72.56
2018-04-29T02:50:54.381Z,72.66
2018-04-29T02:51:54.309Z,72.47
2018-04-29T02:52:54.254Z,72.66
2018-04-29T02:53:54.160Z,72.75
2018-04-29T02:54:54.090Z,72.37
2018-04-29T02:55:54.023Z,72.85
2018-04-29T02:56:53.929Z,72.66
2018-04-29T02:57:53.856Z,72.75
2018-04-29T02:58:53.778Z,72.85
2018-04-29T02:59:53.704Z,73.33
2018-04-29T03:00:53.629Z,73.19
2018-04-29T03:01:53.552Z,73.23
2018-04-29T03:02:53.478Z,72.81
2018-04-29T03:03:53.407Z,73.19
2018-04-29T03:04:53.335Z,73.19
2018-04-29T03:05:53.252Z,73.10
2018-04-29T03:06:53.171Z,74.24
2018-04-29T03:07:53.119Z,73.67
2018-04-29T03:08:53.030Z,73.58
2018-04-29T03:09:52.944Z,73.86
2018-04-29T03:10:52.868Z,73.96
2018-04-29T03:11:52.793Z,73.86
2018-04-29T03:12:52.715Z,74.05
2018-04-29T03:13:52.656Z,73.48
2018-04-29T03:14:52.566Z,73.67
2018-04-29T03:15:52.489Z,73.90
2018-04-29T03:16:52.412Z,73.23
2018-04-29T03:17:52.337Z,73.67
2018-04-29T03:18:52.261Z,73.10
2018-04-29T03:19:52.185Z,73.80
2018-04-29T03:20:52.108Z,73.39
2018-04-29T03:21:52.032Z,73.99
2018-04-29T03:22:51.958Z,74.05
2018-04-29T03:23:51.882Z,73.14
2018-04-29T03:24:51.807Z,73.43
2018-04-29T03:25:51.735Z,73.33
2018-04-29T03:26:51.660Z,73.23
2018-04-29T03:27:51.579Z,73.04
2018-04-29T03:28:51.509Z,73.33
2018-04-29T03:29:51.424Z,73.43
2018-04-29T03:30:51.355Z,73.61
2018-04-29T03:31:51.274Z,72.94
2018-04-29T03:32:51.197Z,73.04
2018-04-29T03:33:51.125Z,73.43
2018-04-29T03:34:51.067Z,72.94
2018-04-29T03:35:50.976Z,72.85
2018-04-29T03:36:50.894Z,72.85
2018-04-29T03:37:50.818Z,72.66
2018-04-29T03:38:50.741Z,72.56
2018-04-29T03:39:50.667Z,72.56
2018-04-29T03:40:50.596Z,72.56
2018-04-29T03:41:50.516Z,72.85
2018-04-29T03:42:50.437Z,72.94
2018-04-29T03:43:50.377Z,72.47
2018-04-29T03:44:50.291Z,71.99
2018-04-29T03:45:50.219Z,72.08
2018-04-29T03:46:50.140Z,72.28
2018-04-29T03:47:50.059Z,72.08
2018-04-29T03:48:49.982Z,72.28
2018-04-29T03:49:49.906Z,72.08
2018-04-29T03:50:49.838Z,72.37
2018-04-29T03:51:49.758Z,72.37
2018-04-29T03:52:49.680Z,72.18
2018-04-29T03:53:49.604Z,72.47
2018-04-29T03:54:49.548Z,72.47
2018-04-29T03:55:49.452Z,72.56
2018-04-29T03:56:49.381Z,72.75
2018-04-29T03:57:49.300Z,72.66
2018-04-29T03:58:49.224Z,72.37
2018-04-29T03:59:49.151Z,72.47
2018-04-29T04:00:49.088Z,71.80
2018-04-29T04:01:51.283Z,72.28
2018-04-29T04:02:48.998Z,72.18
2018-04-29T04:03:48.847Z,71.89
2018-04-29T04:04:48.788Z,72.18
2018-04-29T04:05:48.696Z,72.18
2018-04-29T04:06:48.622Z,72.56
2018-04-29T04:07:48.545Z,72.37
2018-04-29T04:08:48.468Z,72.37
2018-04-29T04:09:48.405Z,72.85
2018-04-29T04:10:48.323Z,72.94
2018-04-29T04:11:48.239Z,72.66
2018-04-29T04:12:48.163Z,72.75
2018-04-29T04:13:48.147Z,72.75
2018-04-29T04:14:48.028Z,72.75
2018-04-29T04:15:47.937Z,72.75
2018-04-29T04:16:47.863Z,72.94
2018-04-29T04:17:47.784Z,72.66
2018-04-29T04:18:47.713Z,72.66
2018-04-29T04:19:47.640Z,72.47
2018-04-29T04:20:47.559Z,72.66
2018-04-29T04:21:47.488Z,72.94
2018-04-29T04:22:47.406Z,72.66
2018-04-29T04:23:47.416Z,72.94
2018-04-29T04:24:47.258Z,72.85
2018-04-29T04:25:47.180Z,72.66
2018-04-29T04:26:47.119Z,72.85
2018-04-29T04:27:47.029Z,72.66
2018-04-29T04:28:46.952Z,72.94
2018-04-29T04:29:46.880Z,73.04
2018-04-29T04:30:46.800Z,72.85
2018-04-29T04:31:46.732Z,73.43
2018-04-29T04:32:46.665Z,72.94
2018-04-29T04:33:46.573Z,73.04
2018-04-29T04:34:46.498Z,73.23
2018-04-29T04:35:46.423Z,72.85
2018-04-29T04:36:46.346Z,73.14
2018-04-29T04:37:46.272Z,73.23
2018-04-29T04:38:46.197Z,73.52
2018-04-29T04:39:46.120Z,73.04
2018-04-29T04:40:46.062Z,73.04
2018-04-29T04:41:45.966Z,73.33
2018-04-29T04:42:45.894Z,73.90
2018-04-29T04:43:45.820Z,72.85
2018-04-29T04:44:45.740Z,73.14
2018-04-29T04:45:45.663Z,73.33
2018-04-29T04:46:45.592Z,72.94
2018-04-29T04:47:45.519Z,73.14
2018-04-29T04:48:45.438Z,73.61
2018-04-29T04:49:45.364Z,73.43
2018-04-29T04:50:45.307Z,73.43
2018-04-29T04:51:45.219Z,73.33
2018-04-29T04:52:45.135Z,73.71
2018-04-29T04:53:45.067Z,72.94
2018-04-29T04:54:44.982Z,72.94
2018-04-29T04:55:44.907Z,73.04
2018-04-29T04:56:44.833Z,73.71
2018-04-29T04:57:44.759Z,73.43
2018-04-29T04:58:44.682Z,73.23
2018-04-29T04:59:44.606Z,73.23
2018-04-29T05:00:44.528Z,72.94
2018-04-29T05:01:44.457Z,73.43
2018-04-29T05:02:44.378Z,73.80
2018-04-29T05:03:44.313Z,73.52
2018-04-29T05:04:44.227Z,72.94
2018-04-29T05:05:44.151Z,72.85
2018-04-29T05:06:44.079Z,72.94
2018-04-29T05:07:44.000Z,73.23
2018-04-29T05:08:43.927Z,72.85
2018-04-29T05:09:43.847Z,73.61
2018-04-29T05:10:43.772Z,72.75
2018-04-29T05:11:43.704Z,73.23
2018-04-29T05:12:43.622Z,73.04
2018-04-29T05:13:43.552Z,73.14
2018-04-29T05:14:43.473Z,73.71
2018-04-29T05:15:43.395Z,73.14
2018-04-29T05:16:43.322Z,73.17
2018-04-29T05:17:43.242Z,73.27
2018-04-29T05:18:43.168Z,73.71
2018-04-29T05:19:43.093Z,73.14
2018-04-29T05:20:43.018Z,73.80
2018-04-29T05:21:42.945Z,72.79
2018-04-29T05:22:42.872Z,72.50
2018-04-29T05:23:42.792Z,72.41
2018-04-29T05:24:42.725Z,72.85
2018-04-29T05:25:42.642Z,72.47
2018-04-29T05:26:42.571Z,73.71
2018-04-29T05:27:42.514Z,73.75
2018-04-29T05:30:25.045Z,73.46
2018-04-29T05:31:24.920Z,73.36
2018-04-29T05:33:28.745Z,73.36
2018-04-29T05:34:28.667Z,72.79
2018-04-29T05:35:28.679Z,73.17
2018-04-29T05:36:28.514Z,73.17
2018-04-29T05:37:28.448Z,73.17
2018-04-29T05:38:28.378Z,72.79
2018-04-29T05:39:28.287Z,72.98
2018-04-29T05:40:28.219Z,72.50
2018-04-29T05:41:28.135Z,72.98
2018-04-29T05:42:28.065Z,72.60
2018-04-29T05:43:27.986Z,72.79
2018-04-29T05:44:27.911Z,72.98
2018-04-29T05:45:27.844Z,72.88
2018-04-29T05:46:27.764Z,72.50
2018-04-29T05:47:27.686Z,73.30
2018-04-29T05:48:27.633Z,73.08
2018-04-29T05:49:27.537Z,73.08
2018-04-29T05:50:27.462Z,72.60
2018-04-29T05:51:27.385Z,72.69
2018-04-29T05:52:27.309Z,72.60
2018-04-29T05:53:27.234Z,72.79
2018-04-29T05:54:27.160Z,72.73
2018-04-29T05:55:27.085Z,72.34
2018-04-29T05:56:27.027Z,73.21
2018-04-29T05:57:26.933Z,72.83
2018-04-29T05:58:26.860Z,72.92
2018-04-29T05:59:26.788Z,72.34
2018-04-29T06:00:26.768Z,72.06
2018-04-29T06:01:26.635Z,72.63
2018-04-29T06:02:26.566Z,72.06
2018-04-29T06:03:26.484Z,72.44
2018-04-29T06:04:26.409Z,72.34
2018-04-29T06:05:26.337Z,72.16
2018-04-29T06:06:26.315Z,72.54
2018-04-29T06:07:26.196Z,72.79
2018-04-29T06:08:26.117Z,72.73
2018-04-29T06:09:26.035Z,72.83
2018-04-29T06:10:25.962Z,72.92
2018-04-29T06:11:25.887Z,72.54
2018-04-29T06:12:25.814Z,72.44
2018-04-29T06:13:25.734Z,72.73
2018-04-29T06:14:25.663Z,72.06
2018-04-29T06:15:25.586Z,72.06
2018-04-29T06:16:25.507Z,72.06
2018-04-29T06:17:25.440Z,71.48
2018-04-29T06:18:25.361Z,71.71
2018-04-29T06:19:25.286Z,71.52
2018-04-29T06:20:25.219Z,71.33
2018-04-29T06:21:25.136Z,71.62
2018-04-29T06:22:25.061Z,71.52
2018-04-29T06:23:24.988Z,71.42
2018-04-29T06:24:24.923Z,71.14
2018-04-29T06:25:24.838Z,71.14
2018-04-29T06:26:24.761Z,71.42
2018-04-29T06:27:24.686Z,71.52
2018-04-29T06:28:24.612Z,71.04
2018-04-29T06:29:24.540Z,71.14
2018-04-29T06:30:24.466Z,70.76
2018-04-29T06:31:24.389Z,70.95
2018-04-29T06:32:24.315Z,70.95
2018-04-29T06:33:24.340Z,71.14
2018-04-29T06:34:24.165Z,71.04
2018-04-29T06:35:24.132Z,71.52
2018-04-29T06:36:24.019Z,70.85
2018-04-29T06:37:23.941Z,70.98
2018-04-29T06:38:23.867Z,70.50
2018-04-29T06:39:23.808Z,70.50
2018-04-29T06:40:23.720Z,71.08
2018-04-29T06:41:23.645Z,70.66
2018-04-29T06:42:23.575Z,71.17
2018-04-29T06:43:23.502Z,70.85
2018-04-29T06:44:23.422Z,70.89
2018-04-29T06:45:23.349Z,70.79
2018-04-29T06:46:23.272Z,70.70
2018-04-29T06:47:23.201Z,70.79
2018-04-29T06:48:23.125Z,70.89
2018-04-29T06:49:23.052Z,71.08
2018-04-29T06:50:22.980Z,70.89
2018-04-29T06:51:22.904Z,70.50
2018-04-29T06:52:22.827Z,70.41
2018-04-29T06:53:22.821Z,71.27
2018-04-29T06:54:22.681Z,70.60
2018-04-29T06:55:22.610Z,70.60
2018-04-29T06:56:22.532Z,69.74
2018-04-29T06:57:22.467Z,69.45
2018-04-29T06:58:22.383Z,70.50
2018-04-29T06:59:22.320Z,70.70
2018-04-29T07:00:22.272Z,69.39
2018-04-29T07:01:22.161Z,70.50
2018-04-29T07:02:22.088Z,71.21
2018-04-29T07:03:22.013Z,70.92
2018-04-29T07:04:21.940Z,70.15
2018-04-29T07:05:21.865Z,69.87
2018-04-29T07:06:21.791Z,69.68
2018-04-29T07:07:21.718Z,69.87
2018-04-29T07:08:21.644Z,69.77
2018-04-29T07:09:21.569Z,69.58
2018-04-29T07:10:21.498Z,71.11
2018-04-29T07:11:21.430Z,70.64
2018-04-29T07:12:21.347Z,70.83
2018-04-29T07:13:21.274Z,71.21
2018-04-29T07:14:21.201Z,71.40
2018-04-29T07:15:21.127Z,71.40
2018-04-29T07:16:21.057Z,71.78
2018-04-29T07:17:20.979Z,71.59
2018-04-29T07:18:20.906Z,70.54
2018-04-29T07:19:20.832Z,70.83
2018-04-29T07:20:20.760Z,70.73
2018-04-29T07:21:20.685Z,70.35
2018-04-29T07:22:20.613Z,70.83
2018-04-29T07:23:20.537Z,71.31
2018-04-29T07:24:20.461Z,71.40
2018-04-29T07:25:20.392Z,71.59
2018-04-29T07:26:20.316Z,71.11
2018-04-29T07:27:20.241Z,71.02
2018-04-29T07:28:20.168Z,70.38
2018-04-29T07:29:20.094Z,71.15
2018-04-29T07:30:20.022Z,71.44
2018-04-29T07:31:19.947Z,70.96
2018-04-29T07:32:19.877Z,70.96
2018-04-29T07:33:19.800Z,70.19
2018-04-29T07:34:19.728Z,70.38
2018-04-29T07:35:19.653Z,70.09
2018-04-29T07:36:19.577Z,69.52
2018-04-29T07:37:19.506Z,70.96
2018-04-29T07:38:19.438Z,70.09
2018-04-29T07:39:19.360Z,70.00
2018-04-29T07:40:19.284Z,71.09
2018-04-29T07:41:19.209Z,69.84
2018-04-29T07:42:19.136Z,69.65
2018-04-29T07:43:19.063Z,69.17
2018-04-29T07:44:18.990Z,69.46
2018-04-29T07:45:18.916Z,69.46
2018-04-29T07:46:18.845Z,69.26
2018-04-29T07:47:18.771Z,69.93
2018-04-29T07:48:18.699Z,69.93
2018-04-29T07:49:18.622Z,68.98
2018-04-29T07:50:18.552Z,68.30
2018-04-29T07:51:18.477Z,68.79
2018-04-29T07:52:18.528Z,69.36
2018-04-29T07:53:18.331Z,69.40
2018-04-29T07:54:18.259Z,69.49
2018-04-29T07:55:18.185Z,68.73
2018-04-29T07:56:18.108Z,68.91
2018-04-29T07:57:18.039Z,69.20
2018-04-29T07:58:17.964Z,69.01
2018-04-29T07:59:17.903Z,68.34
2018-04-29T08:00:17.819Z,67.76
2018-04-29T08:01:17.805Z,67.03
2018-04-29T08:02:17.674Z,67.32
2018-04-29T08:03:17.604Z,68.28
2018-04-29T08:04:17.527Z,68.37
2018-04-29T08:05:17.457Z,68.18
2018-04-29T08:06:17.382Z,68.28
2018-04-29T08:07:17.310Z,68.57
2018-04-29T08:08:17.237Z,67.70
2018-04-29T08:09:17.164Z,67.90
2018-04-29T08:10:17.096Z,67.74
2018-04-29T08:11:17.038Z,67.35
2018-04-29T08:12:16.959Z,67.16
2018-04-29T08:13:16.875Z,68.31
2018-04-29T08:14:16.805Z,68.21
2018-04-29T08:15:16.729Z,68.21
2018-04-29T08:16:16.660Z,67.45
2018-04-29T08:17:16.586Z,67.07
2018-04-29T08:18:16.517Z,67.25
2018-04-29T08:19:16.441Z,67.83
2018-04-29T08:20:16.376Z,66.77
2018-04-29T08:21:16.297Z,67.74
2018-04-29T08:22:16.227Z,67.25
2018-04-29T08:23:16.162Z,66.77
2018-04-29T08:24:16.080Z,66.58
2018-04-29T08:25:16.008Z,66.23
2018-04-29T08:26:15.938Z,65.27
2018-04-29T08:27:15.885Z,65.37
2018-04-29T08:28:15.792Z,65.56
2018-04-29T08:29:15.719Z,66.33
2018-04-29T08:30:15.658Z,66.91
2018-04-29T08:31:15.578Z,67.19
2018-04-29T08:32:15.509Z,67.10
2018-04-29T08:33:15.432Z,67.10
2018-04-29T08:34:15.362Z,67.10
2018-04-29T08:35:15.293Z,65.84
2018-04-29T08:36:15.221Z,66.33
2018-04-29T08:37:15.143Z,66.36
2018-04-29T08:38:15.080Z,66.94
2018-04-29T08:39:15.006Z,65.69
2018-04-29T08:40:14.934Z,65.97
2018-04-29T08:41:14.863Z,65.40
2018-04-29T08:42:14.787Z,64.34
2018-04-29T08:43:14.780Z,64.82
2018-04-29T08:44:14.652Z,64.82
2018-04-29T08:45:14.573Z,65.01
2018-04-29T08:46:14.506Z,64.56
2018-04-29T08:47:14.433Z,64.66
2018-04-29T08:48:14.359Z,63.76
2018-04-29T08:49:14.290Z,62.83
2018-04-29T08:50:14.258Z,63.60
2018-04-29T08:51:14.144Z,62.93
2018-04-29T08:52:14.073Z,63.02
2018-04-29T08:53:14.002Z,65.05
2018-04-29T08:54:13.933Z,65.05
2018-04-29T08:55:13.860Z,63.79
2018-04-29T08:56:13.790Z,62.83
2018-04-29T08:57:13.721Z,62.93
2018-04-29T08:58:13.647Z,63.34
2018-04-29T08:59:13.577Z,63.82
2018-04-29T09:00:13.529Z,63.79
2018-04-29T09:01:13.438Z,63.82
2018-04-29T09:02:13.361Z,63.34
2018-04-29T09:03:13.293Z,63.44
2018-04-29T09:04:13.220Z,62.38
2018-04-29T09:05:13.151Z,62.87
2018-04-29T09:06:13.078Z,62.09
2018-04-29T09:07:13.009Z,62.29
2018-04-29T09:08:12.947Z,62.19
2018-04-29T09:09:12.868Z,61.90
2018-04-29T09:10:12.812Z,62.29
2018-04-29T09:11:12.723Z,62.60
2018-04-29T09:12:12.692Z,61.93
2018-04-29T09:13:12.588Z,62.41
2018-04-29T09:14:12.512Z,62.41
2018-04-29T09:15:12.440Z,62.51
2018-04-29T09:16:12.369Z,62.12
2018-04-29T09:17:12.310Z,61.74
2018-04-29T09:18:12.228Z,62.03
2018-04-29T09:19:12.161Z,61.93
2018-04-29T09:20:12.087Z,61.96
2018-04-29T09:21:12.016Z,62.63
2018-04-29T09:22:11.947Z,62.06
2018-04-29T09:23:11.876Z,61.87
2018-04-29T09:24:11.804Z,62.15
2018-04-29T09:25:11.736Z,61.68
2018-04-29T09:26:11.664Z,61.29
2018-04-29T09:27:11.591Z,60.42
2018-04-29T09:28:11.523Z,59.94
2018-04-29T09:29:11.455Z,59.55
2018-04-29T09:30:11.382Z,60.52
2018-04-29T09:31:11.312Z,60.23
2018-04-29T09:32:11.242Z,59.17
2018-04-29T09:33:11.173Z,59.20
2018-04-29T09:34:11.100Z,59.36
2018-04-29T09:35:11.038Z,58.88
2018-04-29T09:36:10.960Z,60.26
2018-04-29T09:37:10.902Z,60.74
2018-04-29T09:38:10.818Z,60.55
2018-04-29T09:39:10.759Z,60.64
2018-04-29T09:40:10.678Z,62.28
2018-04-29T09:41:10.616Z,59.30
2018-04-29T09:42:10.538Z,59.03
2018-04-29T09:43:10.469Z,58.94
2018-04-29T09:44:10.399Z,58.84
2018-04-29T09:45:10.329Z,58.84
2018-04-29T09:46:10.261Z,59.03
2018-04-29T09:47:10.191Z,58.94
2018-04-29T09:48:10.119Z,59.23
2018-04-29T09:49:10.057Z,58.94
2018-04-29T09:50:09.978Z,58.55
2018-04-29T09:51:09.908Z,58.39
2018-04-29T09:52:09.838Z,58.77
2018-04-29T09:53:09.783Z,56.94
2018-04-29T09:54:09.700Z,57.71
2018-04-29T09:55:09.668Z,57.71
2018-04-29T09:56:09.562Z,58.00
2018-04-29T09:57:09.496Z,58.48
2018-04-29T09:58:09.419Z,56.84
2018-04-29T09:59:09.352Z,56.65
2018-04-29T10:00:09.283Z,55.98
2018-04-29T10:01:09.239Z,56.16
2018-04-29T10:02:09.139Z,56.26
2018-04-29T10:03:09.072Z,56.94
2018-04-29T10:04:09.001Z,57.52
2018-04-29T10:05:08.934Z,57.71
2018-04-29T10:06:08.860Z,57.42
2018-04-29T10:07:08.791Z,57.52
2018-04-29T10:08:08.723Z,55.98
2018-04-29T10:09:08.655Z,56.56
2018-04-29T10:10:08.581Z,56.07
2018-04-29T10:11:08.515Z,56.84
2018-04-29T10:12:08.445Z,56.68
2018-04-29T10:13:08.377Z,57.54
2018-04-29T10:14:08.306Z,56.77
2018-04-29T10:15:08.242Z,56.20
2018-04-29T10:16:08.166Z,58.32
2018-04-29T10:17:08.097Z,56.29
2018-04-29T10:18:08.029Z,56.10
2018-04-29T10:19:07.957Z,56.87
2018-04-29T10:20:07.903Z,56.77
2018-04-29T10:21:07.817Z,57.45
2018-04-29T10:22:07.769Z,57.16
2018-04-29T10:23:07.679Z,56.96
2018-04-29T10:24:07.614Z,57.16
2018-04-29T10:25:07.542Z,58.64
2018-04-29T10:26:07.476Z,57.77
2018-04-29T10:27:07.402Z,58.06
2018-04-29T10:28:07.337Z,55.45
2018-04-29T10:29:07.265Z,54.68
2018-04-29T10:30:07.197Z,54.39
2018-04-29T10:31:07.129Z,54.58
2018-04-29T10:32:07.057Z,55.26
2018-04-29T10:33:07.152Z,53.81
2018-04-29T10:34:06.985Z,54.00
2018-04-29T10:35:06.850Z,53.33
2018-04-29T10:36:06.851Z,52.58
2018-04-29T10:37:06.713Z,54.03
2018-04-29T10:38:06.644Z,55.57
2018-04-29T10:39:06.584Z,52.48
2018-04-29T10:40:06.518Z,52.87
2018-04-29T10:41:06.449Z,51.71
2018-04-29T10:42:06.370Z,51.61
2018-04-29T10:43:06.304Z,52.67
2018-04-29T10:44:06.233Z,54.32
2018-04-29T10:45:06.173Z,53.16
2018-04-29T10:46:06.097Z,53.45
2018-04-29T10:47:06.028Z,53.45
2018-04-29T10:48:05.957Z,53.25
2018-04-29T10:49:05.901Z,54.22
2018-04-29T10:50:05.820Z,53.25
2018-04-29T10:51:05.753Z,53.25
2018-04-29T10:52:05.681Z,52.87
2018-04-29T10:53:05.615Z,52.58
2018-04-29T10:54:05.553Z,54.90
2018-04-29T10:55:05.475Z,52.97
2018-04-29T10:56:05.406Z,52.87
2018-04-29T10:57:05.338Z,52.77
2018-04-29T10:58:05.269Z,53.09
2018-04-29T10:59:05.201Z,54.63
2018-04-29T11:00:05.138Z,55.02
2018-04-29T11:01:05.064Z,53.38
2018-04-29T11:02:04.997Z,51.64
2018-04-29T11:03:04.927Z,51.35
2018-04-29T11:04:04.860Z,54.17
2018-04-29T11:05:04.793Z,53.89
2018-04-29T11:06:04.722Z,53.69
2018-04-29T11:07:04.658Z,52.53
2018-04-29T11:08:04.585Z,51.86
2018-04-29T11:09:04.521Z,52.24
2018-04-29T11:10:04.450Z,52.24
2018-04-29T11:11:04.384Z,52.66
2018-04-29T11:12:04.319Z,52.66
2018-04-29T11:13:04.250Z,52.75
2018-04-29T11:14:04.176Z,52.95
2018-04-29T11:15:04.110Z,53.23
2018-04-29T11:16:04.040Z,53.14
2018-04-29T11:17:03.970Z,52.58
2018-04-29T11:18:03.910Z,50.35
2018-04-29T11:19:03.835Z,49.39
2018-04-29T11:20:03.771Z,50.55
2018-04-29T11:21:03.700Z,49.77
2018-04-29T11:22:03.646Z,50.35
2018-04-29T11:23:03.573Z,50.48
2018-04-29T11:24:03.501Z,50.38
2018-04-29T11:25:03.428Z,51.06
2018-04-29T11:26:03.365Z,50.96
2018-04-29T11:27:03.303Z,49.80
2018-04-29T11:28:03.229Z,48.76
2018-04-29T11:29:03.162Z,47.69
2018-04-29T11:30:03.105Z,49.15
2018-04-29T11:31:03.031Z,49.82
2018-04-29T11:32:02.956Z,50.31
2018-04-29T11:33:02.890Z,48.66
2018-04-29T11:34:02.823Z,47.79
2018-04-29T11:35:02.756Z,48.66
2018-04-29T11:36:02.686Z,49.34
2018-04-29T11:37:02.622Z,50.70
2018-04-29T11:38:02.555Z,49.07
2018-04-29T11:39:02.487Z,47.98
2018-04-29T11:40:02.420Z,47.91
2018-04-29T11:41:02.352Z,48.95
2018-04-29T11:42:02.300Z,49.54
2018-04-29T11:43:02.222Z,49.75
2018-04-29T11:44:02.159Z,49.85
2018-04-29T11:45:02.095Z,49.37
2018-04-29T11:46:02.021Z,49.46
2018-04-29T11:47:01.951Z,48.88
2018-04-29T11:48:01.882Z,46.58
2018-04-29T11:49:01.817Z,45.51
2018-04-29T11:50:01.751Z,44.54
2018-04-29T11:51:01.686Z,44.83
2018-04-29T11:52:01.622Z,44.64
2018-04-29T11:53:01.552Z,44.92
2018-04-29T11:54:01.486Z,46.69
2018-04-29T11:55:01.420Z,43.68
2018-04-29T11:56:01.353Z,45.04
2018-04-29T11:57:01.287Z,45.72
2018-04-29T11:58:01.218Z,46.69
2018-04-29T11:59:01.153Z,46.72
2018-04-29T12:00:01.087Z,46.33
2018-04-29T12:01:01.026Z,45.84
2018-04-29T12:02:00.996Z,45.14
2018-04-29T12:03:00.888Z,45.84
2018-04-29T12:04:00.822Z,46.98
2018-04-29T12:05:00.758Z,45.65
2018-04-29T12:06:00.690Z,43.10
2018-04-29T12:07:00.624Z,43.32
2018-04-29T12:08:00.558Z,43.49
2018-04-29T12:09:00.499Z,43.88
2018-04-29T12:10:00.425Z,45.84
2018-04-29T12:11:00.364Z,46.33
2018-04-29T12:12:00.293Z,45.97
2018-04-29T12:13:00.245Z,45.38
2018-04-29T12:14:00.164Z,44.02
2018-04-29T12:15:00.100Z,43.34
2018-04-29T12:16:00.034Z,40.72
2018-04-29T12:16:59.966Z,41.78
2018-04-29T12:17:59.901Z,42.49
2018-04-29T12:18:59.865Z,41.61
2018-04-29T12:19:59.770Z,39.86
2018-04-29T12:20:59.705Z,37.74
2018-04-29T12:21:59.644Z,36.28
2018-04-29T12:22:59.577Z,38.91
2018-04-29T12:23:59.515Z,37.85
2018-04-29T12:24:59.456Z,38.73
2018-04-29T12:25:59.388Z,38.83
2018-04-29T12:26:59.329Z,38.75
2018-04-29T12:27:59.264Z,37.00
2018-04-29T12:28:59.202Z,36.04
2018-04-29T12:29:59.142Z,35.28
2018-04-29T12:30:59.080Z,33.64
2018-04-29T12:31:59.020Z,33.26
2018-04-29T12:32:58.960Z,33.77
2018-04-29T12:33:58.903Z,33.80
2018-04-29T12:34:58.843Z,34.31
2018-04-29T12:35:58.783Z,33.84
2018-04-29T12:36:58.730Z,33.56
2018-04-29T12:37:58.666Z,33.98
2018-04-29T12:38:58.607Z,33.02
2018-04-29T12:39:58.602Z,32.66
2018-04-29T12:40:58.495Z,30.80
2018-04-29T12:41:58.437Z,28.85
2018-04-29T12:42:58.381Z,27.47
2018-04-29T12:43:58.324Z,28.47
2018-04-29T12:44:58.275Z,28.30
2018-04-29T12:45:58.226Z,27.23
2018-04-29T12:46:58.157Z,26.65
2018-04-29T12:47:58.144Z,25.79
2018-04-29T12:48:58.049Z,26.29
2018-04-29T12:49:57.995Z,27.20
2018-04-29T12:50:57.941Z,25.72
2018-04-29T12:51:57.905Z,25.34
2018-04-29T12:52:57.835Z,26.03
2018-04-29T12:53:57.781Z,24.05